Good Hope, Illinois
Current Conditions -  °F | °C
As of 11:55 PM on Thursday 27 Nov 2014 (Local Time) from KMQB Reporting Station
Overcast Overcast  
Wind Chill:   Ceiling: 7000
Heat Index: 14°   Visibility: 10mi
Dew Point:   Wind: 5mph
Humidity: 75%   Direction: 80°E
Pressure: 30.42"   Gusts: NA
Location:  40.56°N, 90.67°W
Report Text: KMQB 280555Z AUTO 08004KT 10SM SCT060 BKN070 OVC100 M10/M14 A3042 RMK AO2 T11021138 11101 21159 410291159
Loading
Personal Weather Stations






























Interactive Weather Map New forecast layout! Learn more

10-Day Weather Forecast

Advertisements
Track Severe Weather on mobile